sensor_id;sensor_type;location;lat;lon;timestamp;pressure;altitude;pressure_sealevel;temperature;humidity
9839;BME280;4958;48.150;11.506;2023-05-21T00:01:21;95220.75;;;17.75;63.46
9839;BME280;4958;48.150;11.506;2023-05-21T00:03:49;95228.34;;;17.77;63.24
9839;BME280;4958;48.150;11.506;2023-05-21T00:06:16;95214.66;;;17.81;63.54
9839;BME280;4958;48.150;11.506;2023-05-21T00:08:44;95212.88;;;17.70;62.84
9839;BME280;4958;48.150;11.506;2023-05-21T00:11:13;95213.97;;;17.74;63.24
9839;BME280;4958;48.150;11.506;2023-05-21T00:13:41;95221.13;;;17.67;62.62
9839;BME280;4958;48.150;11.506;2023-05-21T00:16:08;95207.66;;;17.70;62.14
9839;BME280;4958;48.150;11.506;2023-05-21T00:18:35;95205.59;;;17.72;62.09
9839;BME280;4958;48.150;11.506;2023-05-21T00:21:03;95205.75;;;17.66;62.07
9839;BME280;4958;48.150;11.506;2023-05-21T00:23:30;95210.34;;;17.64;61.86
9839;BME280;4958;48.150;11.506;2023-05-21T00:25:57;95203.94;;;17.66;61.76
9839;BME280;4958;48.150;11.506;2023-05-21T00:28:24;95196.78;;;17.61;62.03
9839;BME280;4958;48.150;11.506;2023-05-21T00:30:51;95205.16;;;17.64;62.39
9839;BME280;4958;48.150;11.506;2023-05-21T00:33:18;95195.19;;;17.60;62.19
9839;BME280;4958;48.150;11.506;2023-05-21T00:35:46;95194.41;;;17.60;61.21
9839;BME280;4958;48.150;11.506;2023-05-21T00:38:12;95188.84;;;17.56;61.30
9839;BME280;4958;48.150;11.506;2023-05-21T00:40:38;95194.19;;;17.50;61.00
9839;BME280;4958;48.150;11.506;2023-05-21T00:43:05;95189.66;;;17.45;61.51
9839;BME280;4958;48.150;11.506;2023-05-21T00:45:32;95189.34;;;17.42;61.36
9839;BME280;4958;48.150;11.506;2023-05-21T00:48:02;95186.84;;;17.35;61.39
9839;BME280;4958;48.150;11.506;2023-05-21T00:50:30;95187.06;;;17.34;61.56
9839;BME280;4958;48.150;11.506;2023-05-21T00:52:57;95188.34;;;17.31;61.05
9839;BME280;4958;48.150;11.506;2023-05-21T00:55:24;95187.53;;;17.31;60.72
9839;BME280;4958;48.150;11.506;2023-05-21T00:57:53;95186.53;;;17.32;60.18
9839;BME280;4958;48.150;11.506;2023-05-21T01:00:22;95184.59;;;17.27;60.29
9839;BME280;4958;48.150;11.506;2023-05-21T01:02:50;95176.66;;;17.34;60.08
9839;BME280;4958;48.150;11.506;2023-05-21T01:05:18;95183.94;;;17.32;59.65
9839;BME280;4958;48.150;11.506;2023-05-21T01:07:46;95180.75;;;17.30;59.55
9839;BME280;4958;48.150;11.506;2023-05-21T01:10:12;95183.69;;;17.21;59.75
9839;BME280;4958;48.150;11.506;2023-05-21T01:12:41;95188.34;;;17.31;60.00
9839;BME280;4958;48.150;11.506;2023-05-21T01:15:09;95188.22;;;17.26;59.77
9839;BME280;4958;48.150;11.506;2023-05-21T01:17:37;95182.44;;;17.36;59.26
9839;BME280;4958;48.150;11.506;2023-05-21T01:20:05;95185.47;;;17.33;59.14
9839;BME280;4958;48.150;11.506;2023-05-21T01:25:10;95183.38;;;17.30;59.24
9839;BME280;4958;48.150;11.506;2023-05-21T01:27:37;95191.63;;;17.26;59.77
9839;BME280;4958;48.150;11.506;2023-05-21T01:30:05;95185.16;;;17.17;59.61
9839;BME280;4958;48.150;11.506;2023-05-21T01:32:37;95179.63;;;17.14;59.35
9839;BME280;4958;48.150;11.506;2023-05-21T01:35:10;95181.00;;;17.05;59.21
9839;BME280;4958;48.150;11.506;2023-05-21T01:37:43;95177.81;;;17.03;59.76
9839;BME280;4958;48.150;11.506;2023-05-21T01:40:15;95182.00;;;17.04;59.63
9839;BME280;4958;48.150;11.506;2023-05-21T01:42:44;95177.59;;;17.04;59.52
9839;BME280;4958;48.150;11.506;2023-05-21T01:45:13;95170.91;;;16.97;59.67
9839;BME280;4958;48.150;11.506;2023-05-21T01:47:45;95175.09;;;16.98;59.38
9839;BME280;4958;48.150;11.506;2023-05-21T01:50:13;95172.28;;;17.11;59.31
9839;BME280;4958;48.150;11.506;2023-05-21T01:52:47;95171.13;;;17.18;59.48
9839;BME280;4958;48.150;11.506;2023-05-21T01:55:15;95174.19;;;17.15;59.15
9839;BME280;4958;48.150;11.506;2023-05-21T01:57:42;95174.19;;;17.15;59.40
9839;BME280;4958;48.150;11.506;2023-05-21T02:00:11;95173.41;;;17.03;58.72
9839;BME280;4958;48.150;11.506;2023-05-21T02:02:39;95168.88;;;16.99;58.68
9839;BME280;4958;48.150;11.506;2023-05-21T02:05:06;95174.31;;;16.97;59.06
9839;BME280;4958;48.150;11.506;2023-05-21T02:07:32;95169.53;;;16.94;59.57
9839;BME280;4958;48.150;11.506;2023-05-21T02:09:59;95167.44;;;16.91;59.71
9839;BME280;4958;48.150;11.506;2023-05-21T02:12:27;95163.69;;;16.99;58.70
9839;BME280;4958;48.150;11.506;2023-05-21T02:14:53;95169.09;;;16.97;57.75
9839;BME280;4958;48.150;11.506;2023-05-21T02:17:20;95172.94;;;16.95;57.89
9839;BME280;4958;48.150;11.506;2023-05-21T02:19:47;95175.34;;;17.08;58.07
9839;BME280;4958;48.150;11.506;2023-05-21T02:22:13;95166.41;;;17.04;57.40
9839;BME280;4958;48.150;11.506;2023-05-21T02:24:40;95162.66;;;17.00;57.15
9839;BME280;4958;48.150;11.506;2023-05-21T02:27:07;95174.53;;;16.96;57.43
9839;BME280;4958;48.150;11.506;2023-05-21T02:29:36;95174.31;;;16.85;57.79
9839;BME280;4958;48.150;11.506;2023-05-21T02:32:03;95166.81;;;16.77;57.51
9839;BME280;4958;48.150;11.506;2023-05-21T02:34:32;95168.31;;;16.73;57.89
9839;BME280;4958;48.150;11.506;2023-05-21T02:37:00;95170.56;;;16.70;57.74
9839;BME280;4958;48.150;11.506;2023-05-21T02:39:27;95168.06;;;16.75;57.48
9839;BME280;4958;48.150;11.506;2023-05-21T02:41:53;95168.19;;;16.80;57.57
9839;BME280;4958;48.150;11.506;2023-05-21T02:44:20;95168.19;;;16.80;57.53
9839;BME280;4958;48.150;11.506;2023-05-21T02:46:51;95159.25;;;16.76;57.82
9839;BME280;4958;48.150;11.506;2023-05-21T02:49:17;95164.78;;;16.79;57.41
9839;BME280;4958;48.150;11.506;2023-05-21T02:51:44;95166.16;;;16.70;57.67
9839;BME280;4958;48.150;11.506;2023-05-21T02:54:10;95170.66;;;16.63;58.32
9839;BME280;4958;48.150;11.506;2023-05-21T02:56:36;95169.94;;;16.56;58.13
9839;BME280;4958;48.150;11.506;2023-05-21T02:59:03;95173.53;;;16.55;58.61
9839;BME280;4958;48.150;11.506;2023-05-21T03:01:29;95173.31;;;16.56;59.05
9839;BME280;4958;48.150;11.506;2023-05-21T03:03:57;95161.91;;;16.57;58.68
9839;BME280;4958;48.150;11.506;2023-05-21T03:06:24;95167.09;;;16.46;58.77
9839;BME280;4958;48.150;11.506;2023-05-21T03:08:50;95163.84;;;16.50;58.95
9839;BME280;4958;48.150;11.506;2023-05-21T03:11:20;95163.63;;;16.52;58.60
9839;BME280;4958;48.150;11.506;2023-05-21T03:13:46;95161.34;;;16.44;58.70
9839;BME280;4958;48.150;11.506;2023-05-21T03:16:13;95162.56;;;16.41;58.91
9839;BME280;4958;48.150;11.506;2023-05-21T03:18:39;95164.38;;;16.41;58.67
9839;BME280;4958;48.150;11.506;2023-05-21T03:21:08;95163.22;;;16.37;58.78
9839;BME280;4958;48.150;11.506;2023-05-21T03:23:37;95153.53;;;16.32;58.67
9839;BME280;4958;48.150;11.506;2023-05-21T03:26:05;95152.59;;;16.27;58.98
9839;BME280;4958;48.150;11.506;2023-05-21T03:28:32;95154.63;;;16.24;58.99
9839;BME280;4958;48.150;11.506;2023-05-21T03:30:58;95154.63;;;16.24;58.48
9839;BME280;4958;48.150;11.506;2023-05-21T03:33:25;95158.66;;;16.20;58.92
9839;BME280;4958;48.150;11.506;2023-05-21T03:35:51;95160.25;;;16.21;59.14
9839;BME280;4958;48.150;11.506;2023-05-21T03:38:20;95161.84;;;16.22;59.30
9839;BME280;4958;48.150;11.506;2023-05-21T03:40:46;95158.88;;;16.19;58.98
9839;BME280;4958;48.150;11.506;2023-05-21T03:43:14;95156.44;;;16.24;58.87
9839;BME280;4958;48.150;11.506;2023-05-21T03:45:41;95156.19;;;16.26;58.39
9839;BME280;4958;48.150;11.506;2023-05-21T03:48:07;95158.81;;;16.26;58.17
9839;BME280;4958;48.150;11.506;2023-05-21T03:50:34;95159.81;;;16.24;58.27
9839;BME280;4958;48.150;11.506;2023-05-21T03:53:00;95155.09;;;16.33;58.42
9839;BME280;4958;48.150;11.506;2023-05-21T03:55:31;95155.56;;;16.42;58.25
9839;BME280;4958;48.150;11.506;2023-05-21T03:57:57;95152.75;;;16.43;58.21
9839;BME280;4958;48.150;11.506;2023-05-21T04:00:26;95143.94;;;16.44;58.00
9839;BME280;4958;48.150;11.506;2023-05-21T04:02:53;95153.44;;;16.50;58.41
9839;BME280;4958;48.150;11.506;2023-05-21T04:05:19;95154.69;;;16.48;58.15
9839;BME280;4958;48.150;11.506;2023-05-21T04:07:46;95160.88;;;16.35;58.61
9839;BME280;4958;48.150;11.506;2023-05-21T04:10:12;95157.78;;;16.27;59.40
9839;BME280;4958;48.150;11.506;2023-05-21T04:12:40;95155.84;;;16.22;59.51
9839;BME280;4958;48.150;11.506;2023-05-21T04:15:07;95162.16;;;16.14;59.75
9839;BME280;4958;48.150;11.506;2023-05-21T04:17:34;95159.91;;;16.18;59.79
9839;BME280;4958;48.150;11.506;2023-05-21T04:20:00;95158.31;;;16.17;59.53
9839;BME280;4958;48.150;11.506;2023-05-21T04:22:28;95159.00;;;16.12;59.62
9839;BME280;4958;48.150;11.506;2023-05-21T04:24:56;95166.69;;;16.19;59.34
9839;BME280;4958;48.150;11.506;2023-05-21T04:27:24;95156.44;;;16.24;59.40
9839;BME280;4958;48.150;11.506;2023-05-21T04:29:54;95167.41;;;16.38;59.09
9839;BME280;4958;48.150;11.506;2023-05-21T04:32:22;95163.00;;;16.38;58.92
9839;BME280;4958;48.150;11.506;2023-05-21T04:34:49;95174.97;;;16.39;59.10
9839;BME280;4958;48.150;11.506;2023-05-21T04:37:15;95173.63;;;16.37;58.92
9839;BME280;4958;48.150;11.506;2023-05-21T04:39:44;95173.16;;;16.28;59.38
9839;BME280;4958;48.150;11.506;2023-05-21T04:42:11;95171.94;;;16.31;59.88
9839;BME280;4958;48.150;11.506;2023-05-21T04:44:37;95172.44;;;16.21;60.02
9839;BME280;4958;48.150;11.506;2023-05-21T04:47:05;95175.03;;;16.21;60.15
9839;BME280;4958;48.150;11.506;2023-05-21T04:49:32;95175.84;;;16.21;60.26
9839;BME280;4958;48.150;11.506;2023-05-21T04:52:00;95176.53;;;16.29;60.10
9839;BME280;4958;48.150;11.506;2023-05-21T04:54:27;95172.81;;;16.36;60.34
9839;BME280;4958;48.150;11.506;2023-05-21T04:56:53;95172.88;;;16.48;59.38
9839;BME280;4958;48.150;11.506;2023-05-21T04:59:20;95178.06;;;16.59;59.10
9839;BME280;4958;48.150;11.506;2023-05-21T05:01:47;95190.28;;;16.59;59.59
9839;BME280;4958;48.150;11.506;2023-05-21T05:04:14;95185.44;;;16.63;59.39
9839;BME280;4958;48.150;11.506;2023-05-21T05:06:41;95173.53;;;16.55;58.96
9839;BME280;4958;48.150;11.506;2023-05-21T05:09:07;95177.63;;;16.63;59.47
9839;BME280;4958;48.150;11.506;2023-05-21T05:11:40;95184.22;;;16.65;60.03
9839;BME280;4958;48.150;11.506;2023-05-21T05:14:09;95176.91;;;16.74;59.58
9839;BME280;4958;48.150;11.506;2023-05-21T05:16:35;95178.72;;;16.73;58.41
9839;BME280;4958;48.150;11.506;2023-05-21T05:19:02;95185.16;;;16.82;58.68
9839;BME280;4958;48.150;11.506;2023-05-21T05:21:30;95181.09;;;16.86;58.29
9839;BME280;4958;48.150;11.506;2023-05-21T05:23:57;95180.88;;;16.88;58.64
9839;BME280;4958;48.150;11.506;2023-05-21T05:26:25;95178.28;;;16.88;58.45
9839;BME280;4958;48.150;11.506;2023-05-21T05:28:51;95185.06;;;16.89;58.54
9839;BME280;4958;48.150;11.506;2023-05-21T05:31:18;95175.19;;;16.79;58.40
9839;BME280;4958;48.150;11.506;2023-05-21T05:33:44;95180.06;;;16.87;58.11
9839;BME280;4958;48.150;11.506;2023-05-21T05:36:11;95184.25;;;16.88;58.52
9839;BME280;4958;48.150;11.506;2023-05-21T05:38:38;95185.94;;;16.95;58.59
9839;BME280;4958;48.150;11.506;2023-05-21T05:41:05;95185.84;;;17.01;57.69
9839;BME280;4958;48.150;11.506;2023-05-21T05:43:31;95182.09;;;16.97;59.01
9839;BME280;4958;48.150;11.506;2023-05-21T05:45:58;95182.22;;;17.02;58.58
9839;BME280;4958;48.150;11.506;2023-05-21T05:48:25;95188.78;;;17.05;58.66
9839;BME280;4958;48.150;11.506;2023-05-21T05:50:51;95171.59;;;17.15;58.90
9839;BME280;4958;48.150;11.506;2023-05-21T05:53:20;95177.34;;;17.17;59.39
9839;BME280;4958;48.150;11.506;2023-05-21T05:55:54;95173.06;;;17.23;60.23
9839;BME280;4958;48.150;11.506;2023-05-21T05:58:20;95181.88;;;17.22;59.07
9839;BME280;4958;48.150;11.506;2023-05-21T06:00:48;95184.72;;;17.20;59.40
9839;BME280;4958;48.150;11.506;2023-05-21T06:03:15;95183.13;;;17.19;58.28
9839;BME280;4958;48.150;11.506;2023-05-21T06:05:42;95187.78;;;17.29;58.09
9839;BME280;4958;48.150;11.506;2023-05-21T06:08:11;95188.78;;;17.28;57.69
9839;BME280;4958;48.150;11.506;2023-05-21T06:10:38;95189.91;;;17.32;57.84
9839;BME280;4958;48.150;11.506;2023-05-21T06:13:06;95179.38;;;17.39;57.67
9839;BME280;4958;48.150;11.506;2023-05-21T06:15:32;95180.28;;;17.44;58.79
9839;BME280;4958;48.150;11.506;2023-05-21T06:17:58;95180.94;;;17.51;57.80
9839;BME280;4958;48.150;11.506;2023-05-21T06:20:25;95180.84;;;17.46;57.41
9839;BME280;4958;48.150;11.506;2023-05-21T06:22:51;95176.22;;;17.48;57.66
9839;BME280;4958;48.150;11.506;2023-05-21T06:25:21;95180.72;;;17.65;57.89
9839;BME280;4958;48.150;11.506;2023-05-21T06:27:47;95181.38;;;17.72;57.48
9839;BME280;4958;48.150;11.506;2023-05-21T06:30:15;95187.81;;;17.81;58.15
9839;BME280;4958;48.150;11.506;2023-05-21T06:32:44;95181.13;;;17.85;57.56
9839;BME280;4958;48.150;11.506;2023-05-21T06:35:11;95194.16;;;17.73;57.79
9839;BME280;4958;48.150;11.506;2023-05-21T06:37:37;95190.84;;;17.89;58.85
9839;BME280;4958;48.150;11.506;2023-05-21T06:40:05;95191.38;;;17.91;57.61
9839;BME280;4958;48.150;11.506;2023-05-21T06:42:32;95192.06;;;17.99;57.29
9839;BME280;4958;48.150;11.506;2023-05-21T06:44:58;95190.34;;;18.04;57.01
9839;BME280;4958;48.150;11.506;2023-05-21T06:47:26;95186.50;;;18.07;55.99
9839;BME280;4958;48.150;11.506;2023-05-21T06:49:53;95190.16;;;18.22;57.84
9839;BME280;4958;48.150;11.506;2023-05-21T06:52:19;95185.22;;;18.38;57.14
9839;BME280;4958;48.150;11.506;2023-05-21T06:54:46;95191.94;;;18.50;57.05
9839;BME280;4958;48.150;11.506;2023-05-21T06:57:16;95185.69;;;18.51;56.30
9839;BME280;4958;48.150;11.506;2023-05-21T06:59:43;95183.88;;;18.52;55.04
9839;BME280;4958;48.150;11.506;2023-05-21T07:02:09;95189.31;;;18.62;55.13
9839;BME280;4958;48.150;11.506;2023-05-21T07:04:37;95190.56;;;18.76;56.69
9839;BME280;4958;48.150;11.506;2023-05-21T07:07:04;95191.50;;;18.87;55.27
9839;BME280;4958;48.150;11.506;2023-05-21T07:09:32;95189.53;;;18.94;53.40
9839;BME280;4958;48.150;11.506;2023-05-21T07:11:59;95186.47;;;18.97;53.45
9839;BME280;4958;48.150;11.506;2023-05-21T07:14:26;95190.78;;;19.08;54.54
9839;BME280;4958;48.150;11.506;2023-05-21T07:16:52;95196.66;;;19.15;53.15
9839;BME280;4958;48.150;11.506;2023-05-21T07:19:19;95189.88;;;19.36;54.12
9839;BME280;4958;48.150;11.506;2023-05-21T07:21:48;95194.69;;;19.44;51.75
9839;BME280;4958;48.150;11.506;2023-05-21T07:24:16;95188.94;;;19.42;49.69
9839;BME280;4958;48.150;11.506;2023-05-21T07:26:43;95193.19;;;19.48;49.66
9839;BME280;4958;48.150;11.506;2023-05-21T07:29:09;95188.06;;;19.53;48.72
9839;BME280;4958;48.150;11.506;2023-05-21T07:31:36;95185.88;;;19.67;48.95
9839;BME280;4958;48.150;11.506;2023-05-21T07:34:02;95183.88;;;19.74;47.38
9839;BME280;4958;48.150;11.506;2023-05-21T07:36:29;95191.81;;;19.84;48.01
9839;BME280;4958;48.150;11.506;2023-05-21T07:38:59;95187.94;;;19.87;47.21
9839;BME280;4958;48.150;11.506;2023-05-21T07:41:25;95189.50;;;19.88;46.57
9839;BME280;4958;48.150;11.506;2023-05-21T07:43:52;95193.16;;;19.87;46.48
9839;BME280;4958;48.150;11.506;2023-05-21T07:46:18;95196.38;;;19.94;47.37
9839;BME280;4958;48.150;11.506;2023-05-21T07:48:45;95192.75;;;19.95;46.07
9839;BME280;4958;48.150;11.506;2023-05-21T07:51:12;95183.56;;;19.92;45.79
9839;BME280;4958;48.150;11.506;2023-05-21T07:53:39;95191.88;;;20.11;46.25
9839;BME280;4958;48.150;11.506;2023-05-21T07:56:12;95189.09;;;20.23;46.69
9839;BME280;4958;48.150;11.506;2023-05-21T07:58:38;95188.69;;;20.31;46.74
9839;BME280;4958;48.150;11.506;2023-05-21T08:01:05;95185.50;;;20.29;45.89
9839;BME280;4958;48.150;11.506;2023-05-21T08:03:32;95184.53;;;20.35;46.87
9839;BME280;4958;48.150;11.506;2023-05-21T08:06:01;95199.59;;;20.50;47.17
9839;BME280;4958;48.150;11.506;2023-05-21T08:08:28;95196.75;;;20.51;46.46
9839;BME280;4958;48.150;11.506;2023-05-21T08:10:54;95205.94;;;20.54;47.32
9839;BME280;4958;48.150;11.506;2023-05-21T08:13:22;95210.56;;;20.47;45.54
9839;BME280;4958;48.150;11.506;2023-05-21T08:15:49;95211.09;;;20.49;46.20
9839;BME280;4958;48.150;11.506;2023-05-21T08:18:15;95211.03;;;20.44;45.66
9839;BME280;4958;48.150;11.506;2023-05-21T08:20:42;95210.94;;;20.33;46.20
9839;BME280;4958;48.150;11.506;2023-05-21T08:23:09;95214.03;;;20.30;47.17
9839;BME280;4958;48.150;11.506;2023-05-21T08:25:36;95208.81;;;20.30;46.98
9839;BME280;4958;48.150;11.506;2023-05-21T08:28:02;95205.16;;;20.31;46.79
9839;BME280;4958;48.150;11.506;2023-05-21T08:30:30;95210.69;;;20.35;47.30
9839;BME280;4958;48.150;11.506;2023-05-21T08:32:56;95213.53;;;20.33;48.56
9839;BME280;4958;48.150;11.506;2023-05-21T08:35:23;95210.63;;;20.30;46.89
9839;BME280;4958;48.150;11.506;2023-05-21T08:37:50;95219.91;;;20.38;47.40
9839;BME280;4958;48.150;11.506;2023-05-21T08:40:16;95223.06;;;20.40;47.75
9839;BME280;4958;48.150;11.506;2023-05-21T08:42:45;95215.91;;;20.35;47.93
9839;BME280;4958;48.150;11.506;2023-05-21T08:45:13;95221.72;;;20.37;49.22
9839;BME280;4958;48.150;11.506;2023-05-21T08:47:42;95220.72;;;20.43;48.72
9839;BME280;4958;48.150;11.506;2023-05-21T08:50:11;95224.63;;;20.41;48.60
9839;BME280;4958;48.150;11.506;2023-05-21T08:52:37;95216.53;;;20.42;49.42
9839;BME280;4958;48.150;11.506;2023-05-21T08:55:05;95222.97;;;20.56;49.78
9839;BME280;4958;48.150;11.506;2023-05-21T08:57:41;95218.91;;;20.71;50.94
9839;BME280;4958;48.150;11.506;2023-05-21T09:00:09;95212.44;;;20.78;49.55
9839;BME280;4958;48.150;11.506;2023-05-21T09:02:37;95217.44;;;20.85;49.41
9839;BME280;4958;48.150;11.506;2023-05-21T09:05:09;95217.28;;;20.96;50.03
9839;BME280;4958;48.150;11.506;2023-05-21T09:07:41;95216.75;;;20.99;49.15
9839;BME280;4958;48.150;11.506;2023-05-21T09:10:11;95224.91;;;21.03;49.65
9839;BME280;4958;48.150;11.506;2023-05-21T09:12:38;95221.84;;;21.11;50.48
9839;BME280;4958;48.150;11.506;2023-05-21T09:15:06;95219.06;;;21.23;50.32
9839;BME280;4958;48.150;11.506;2023-05-21T09:17:33;95216.53;;;21.33;50.80
9839;BME280;4958;48.150;11.506;2023-05-21T09:20:09;95220.53;;;21.46;49.71
9839;BME280;4958;48.150;11.506;2023-05-21T09:22:39;95216.66;;;21.58;50.31
9839;BME280;4958;48.150;11.506;2023-05-21T09:25:09;95223.28;;;21.76;50.21
9839;BME280;4958;48.150;11.506;2023-05-21T09:27:35;95222.56;;;21.86;50.61
9839;BME280;4958;48.150;11.506;2023-05-21T09:30:03;95217.34;;;21.91;49.47
9839;BME280;4958;48.150;11.506;2023-05-21T09:32:30;95223.19;;;22.03;48.47
9839;BME280;4958;48.150;11.506;2023-05-21T09:35:05;95219.81;;;22.18;49.40
9839;BME280;4958;48.150;11.506;2023-05-21T09:37:36;95219.59;;;22.24;48.82
9839;BME280;4958;48.150;11.506;2023-05-21T09:40:09;95216.47;;;22.37;49.19
9839;BME280;4958;48.150;11.506;2023-05-21T09:42:37;95220.44;;;22.50;47.83
9839;BME280;4958;48.150;11.506;2023-05-21T09:45:05;95214.41;;;22.65;48.52
9839;BME280;4958;48.150;11.506;2023-05-21T09:47:31;95208.13;;;22.76;48.02
9839;BME280;4958;48.150;11.506;2023-05-21T09:49:59;95207.88;;;22.93;47.58
9839;BME280;4958;48.150;11.506;2023-05-21T09:52:25;95205.00;;;23.15;47.57
9839;BME280;4958;48.150;11.506;2023-05-21T09:54:55;95205.53;;;23.27;47.94
9839;BME280;4958;48.150;11.506;2023-05-21T09:57:24;95205.72;;;23.51;47.18
9839;BME280;4958;48.150;11.506;2023-05-21T09:59:50;95207.78;;;23.74;47.15
9839;BME280;4958;48.150;11.506;2023-05-21T10:02:19;95207.19;;;23.87;45.79
9839;BME280;4958;48.150;11.506;2023-05-21T10:04:47;95207.25;;;23.82;45.54
9839;BME280;4958;48.150;11.506;2023-05-21T10:07:14;95205.16;;;23.69;44.72
9839;BME280;4958;48.150;11.506;2023-05-21T10:09:45;95206.75;;;23.50;44.03
9839;BME280;4958;48.150;11.506;2023-05-21T10:12:16;95202.56;;;23.49;44.61
9839;BME280;4958;48.150;11.506;2023-05-21T10:14:45;95195.25;;;23.40;42.67
9839;BME280;4958;48.150;11.506;2023-05-21T10:17:16;95192.88;;;23.39;43.25
9839;BME280;4958;48.150;11.506;2023-05-21T10:19:43;95192.34;;;23.52;43.67
9839;BME280;4958;48.150;11.506;2023-05-21T10:22:11;95194.69;;;23.59;42.23
9839;BME280;4958;48.150;11.506;2023-05-21T10:24:39;95189.41;;;23.69;42.94
9839;BME280;4958;48.150;11.506;2023-05-21T10:27:06;95188.16;;;24.10;40.91
9839;BME280;4958;48.150;11.506;2023-05-21T10:29:35;95189.53;;;24.52;41.31
9839;BME280;4958;48.150;11.506;2023-05-21T10:32:02;95193.03;;;24.82;40.53
9839;BME280;4958;48.150;11.506;2023-05-21T10:34:30;95181.06;;;24.99;39.45
9839;BME280;4958;48.150;11.506;2023-05-21T10:37:00;95178.88;;;25.06;37.23
9839;BME280;4958;48.150;11.506;2023-05-21T10:39:28;95189.88;;;25.13;37.28
9839;BME280;4958;48.150;11.506;2023-05-21T10:42:01;95191.06;;;25.26;36.63
9839;BME280;4958;48.150;11.506;2023-05-21T10:44:42;95189.84;;;25.42;35.62
9839;BME280;4958;48.150;11.506;2023-05-21T10:47:24;95182.41;;;25.50;34.56
9839;BME280;4958;48.150;11.506;2023-05-21T10:50:07;95186.81;;;25.59;34.96
9839;BME280;4958;48.150;11.506;2023-05-21T10:52:51;95176.34;;;25.78;34.91
9839;BME280;4958;48.150;11.506;2023-05-21T10:55:35;95175.69;;;25.86;34.63
9839;BME280;4958;48.150;11.506;2023-05-21T10:58:18;95173.91;;;25.81;33.27
9839;BME280;4958;48.150;11.506;2023-05-21T11:00:51;95173.69;;;25.78;33.41
9839;BME280;4958;48.150;11.506;2023-05-21T11:03:19;95177.47;;;25.72;34.01
9839;BME280;4958;48.150;11.506;2023-05-21T11:05:50;95182.44;;;25.73;33.95
9839;BME280;4958;48.150;11.506;2023-05-21T11:08:20;95177.50;;;25.67;34.84
9839;BME280;4958;48.150;11.506;2023-05-21T11:10:52;95172.22;;;25.67;34.15
9839;BME280;4958;48.150;11.506;2023-05-21T11:13:20;95168.59;;;25.63;33.64
9839;BME280;4958;48.150;11.506;2023-05-21T11:16:14;95172.78;;;25.40;33.24
9839;BME280;4958;48.150;11.506;2023-05-21T11:18:59;95178.19;;;25.25;33.73
9839;BME280;4958;48.150;11.506;2023-05-21T11:21:30;95177.78;;;25.12;33.50
9839;BME280;4958;48.150;11.506;2023-05-21T11:24:06;95176.75;;;25.08;33.86
9839;BME280;4958;48.150;11.506;2023-05-21T11:27:00;95174.94;;;25.04;33.49
9839;BME280;4958;48.150;11.506;2023-05-21T11:29:41;95184.69;;;25.03;33.24
9839;BME280;4958;48.150;11.506;2023-05-21T11:32:11;95183.09;;;25.07;33.88
9839;BME280;4958;48.150;11.506;2023-05-21T11:34:40;95178.59;;;25.08;34.01
9839;BME280;4958;48.150;11.506;2023-05-21T11:37:24;95173.75;;;25.20;33.80
9839;BME280;4958;48.150;11.506;2023-05-21T11:39:53;95168.34;;;25.35;33.19
9839;BME280;4958;48.150;11.506;2023-05-21T11:42:28;95170.25;;;25.54;32.08
9839;BME280;4958;48.150;11.506;2023-05-21T11:44:56;95161.63;;;25.72;32.85
9839;BME280;4958;48.150;11.506;2023-05-21T11:47:26;95172.47;;;25.70;31.41
9839;BME280;4958;48.150;11.506;2023-05-21T11:49:53;95162.94;;;25.74;32.08
9839;BME280;4958;48.150;11.506;2023-05-21T11:52:20;95164.50;;;25.75;32.30
9839;BME280;4958;48.150;11.506;2023-05-21T11:54:47;95159.38;;;25.84;32.16
9839;BME280;4958;48.150;11.506;2023-05-21T11:57:15;95165.03;;;25.96;33.28
9839;BME280;4958;48.150;11.506;2023-05-21T11:59:43;95156.69;;;26.08;32.66
9839;BME280;4958;48.150;11.506;2023-05-21T12:02:13;95162.25;;;26.25;32.89
9839;BME280;4958;48.150;11.506;2023-05-21T12:04:43;95153.16;;;26.36;31.87
9839;BME280;4958;48.150;11.506;2023-05-21T12:07:10;95158.50;;;26.50;32.82
9839;BME280;4958;48.150;11.506;2023-05-21T12:09:38;95160.13;;;26.65;32.91
9839;BME280;4958;48.150;11.506;2023-05-21T12:12:07;95152.34;;;26.73;32.03
9839;BME280;4958;48.150;11.506;2023-05-21T12:14:34;95148.38;;;26.90;31.48
9839;BME280;4958;48.150;11.506;2023-05-21T12:17:01;95148.06;;;27.10;31.43
9839;BME280;4958;48.150;11.506;2023-05-21T12:19:28;95155.88;;;27.15;32.13
9839;BME280;4958;48.150;11.506;2023-05-21T12:22:00;95150.72;;;27.24;30.67
9839;BME280;4958;48.150;11.506;2023-05-21T12:24:27;95161.41;;;27.32;27.91
9839;BME280;4958;48.150;11.506;2023-05-21T12:26:54;95154.25;;;27.33;26.58
9839;BME280;4958;48.150;11.506;2023-05-21T12:29:24;95150.22;;;27.35;28.19
9839;BME280;4958;48.150;11.506;2023-05-21T12:31:50;95144.06;;;27.40;27.76
9839;BME280;4958;48.150;11.506;2023-05-21T12:34:38;95142.03;;;27.50;27.24
9839;BME280;4958;48.150;11.506;2023-05-21T12:37:07;95144.22;;;27.62;26.14
9839;BME280;4958;48.150;11.506;2023-05-21T12:39:39;95134.09;;;27.78;27.45
9839;BME280;4958;48.150;11.506;2023-05-21T12:42:07;95144.28;;;27.84;27.94
9839;BME280;4958;48.150;11.506;2023-05-21T12:44:39;95140.16;;;27.92;27.87
9839;BME280;4958;48.150;11.506;2023-05-21T12:47:06;95133.94;;;28.10;28.62
9839;BME280;4958;48.150;11.506;2023-05-21T12:49:34;95134.91;;;28.14;27.51
9839;BME280;4958;48.150;11.506;2023-05-21T12:52:02;95135.41;;;28.16;28.77
9839;BME280;4958;48.150;11.506;2023-05-21T12:54:34;95137.19;;;28.21;28.92
9839;BME280;4958;48.150;11.506;2023-05-21T12:57:15;95134.13;;;28.14;29.33
9839;BME280;4958;48.150;11.506;2023-05-21T12:59:46;95126.25;;;27.87;28.69
9839;BME280;4958;48.150;11.506;2023-05-21T13:02:24;95133.03;;;27.51;28.95
9839;BME280;4958;48.150;11.506;2023-05-21T13:04:57;95132.09;;;27.15;29.99
9839;BME280;4958;48.150;11.506;2023-05-21T13:07:29;95136.72;;;26.91;29.82
9839;BME280;4958;48.150;11.506;2023-05-21T13:09:59;95135.88;;;26.95;29.17
9839;BME280;4958;48.150;11.506;2023-05-21T13:12:27;95130.91;;;27.07;30.00
9839;BME280;4958;48.150;11.506;2023-05-21T13:14:55;95133.28;;;27.23;29.65
9839;BME280;4958;48.150;11.506;2023-05-21T13:17:22;95121.75;;;27.46;29.74
9839;BME280;4958;48.150;11.506;2023-05-21T13:20:04;95124.59;;;27.49;27.96